createdAt,value
2018-12-29T00:02:07.748Z,14.33
2018-12-29T00:04:38.820Z,10.30
2018-12-29T00:07:09.731Z,11.13
2018-12-29T00:09:40.654Z,12.17
2018-12-29T00:12:11.560Z,13.17
2018-12-29T00:14:42.471Z,8.73
2018-12-29T00:17:13.383Z,12.27
2018-12-29T00:19:47.739Z,11.97
2018-12-29T00:22:19.054Z,10.67
2018-12-29T00:24:52.966Z,10.27
2018-12-29T00:27:24.164Z,13.37
2018-12-29T00:29:55.171Z,10.93
2018-12-29T00:32:26.114Z,11.93
2018-12-29T00:34:57.095Z,9.83
2018-12-29T00:37:28.030Z,9.17
2018-12-29T00:39:58.946Z,9.57
2018-12-29T00:42:29.912Z,14.20
2018-12-29T00:45:02.584Z,13.50
2018-12-29T00:47:33.496Z,15.47
2018-12-29T00:50:04.448Z,14.90
2018-12-29T00:52:35.382Z,17.87
2018-12-29T00:55:06.304Z,15.07
2018-12-29T00:57:37.233Z,10.97
2018-12-29T01:00:08.823Z,11.77
2018-12-29T01:02:39.778Z,11.23
2018-12-29T01:05:10.776Z,11.17
2018-12-29T01:07:41.691Z,12.53
2018-12-29T01:10:12.599Z,9.23
2018-12-29T01:12:43.513Z,13.87
2018-12-29T01:15:14.505Z,12.23
2018-12-29T01:17:45.808Z,10.10
2018-12-29T01:20:16.958Z,8.60
2018-12-29T01:22:47.852Z,10.83
2018-12-29T01:25:18.775Z,13.40
2018-12-29T01:27:49.694Z,9.73
2018-12-29T01:30:20.604Z,8.60
2018-12-29T01:32:51.533Z,10.13
2018-12-29T01:35:22.452Z,9.93
2018-12-29T01:37:53.359Z,12.13
2018-12-29T01:40:24.269Z,19.90
2018-12-29T01:42:55.205Z,12.83
2018-12-29T01:45:26.112Z,12.23
2018-12-29T01:47:57.037Z,11.83
2018-12-29T01:50:27.931Z,11.03
2018-12-29T01:52:58.823Z,13.97
2018-12-29T01:55:29.744Z,11.93
2018-12-29T01:58:00.664Z,12.57
2018-12-29T02:00:31.573Z,10.73
2018-12-29T02:03:02.492Z,9.93
2018-12-29T02:05:33.390Z,11.77
2018-12-29T02:08:04.299Z,24.67
2018-12-29T02:10:35.344Z,36.67
2018-12-29T02:13:06.323Z,20.60
2018-12-29T02:15:37.288Z,17.13
2018-12-29T02:18:08.206Z,10.77
2018-12-29T02:20:39.114Z,11.83
2018-12-29T02:23:10.014Z,12.23
2018-12-29T02:25:40.915Z,17.53
2018-12-29T02:28:11.847Z,17.03
2018-12-29T02:30:42.819Z,16.77
2018-12-29T02:33:13.902Z,16.17
2018-12-29T02:35:44.854Z,14.90
2018-12-29T02:38:15.840Z,14.27
2018-12-29T02:40:46.740Z,14.40
2018-12-29T02:43:17.654Z,15.97
2018-12-29T02:45:48.594Z,17.23
2018-12-29T02:48:19.574Z,18.87
2018-12-29T02:50:50.531Z,16.27
2018-12-29T02:53:21.449Z,17.60
2018-12-29T02:55:52.374Z,16.53
2018-12-29T02:58:23.292Z,11.73
2018-12-29T03:00:54.242Z,17.03
2018-12-29T03:03:25.152Z,15.83
2018-12-29T03:05:56.095Z,14.43
2018-12-29T03:08:27.036Z,12.93
2018-12-29T03:10:58.014Z,15.30
2018-12-29T03:13:29.962Z,14.30
2018-12-29T03:16:01.690Z,16.10
2018-12-29T03:18:32.679Z,16.10
2018-12-29T03:21:03.580Z,19.37
2018-12-29T03:23:34.504Z,15.67
2018-12-29T03:26:05.462Z,15.47
2018-12-29T03:28:36.389Z,15.67
2018-12-29T03:31:07.377Z,14.03
2018-12-29T03:33:38.395Z,12.20
2018-12-29T03:36:09.300Z,13.97
2018-12-29T03:38:40.252Z,16.17
2018-12-29T03:41:11.184Z,14.47
2018-12-29T03:43:42.133Z,17.23
2018-12-29T03:46:13.070Z,15.40
2018-12-29T03:48:44.032Z,14.93
2018-12-29T03:51:14.950Z,15.50
2018-12-29T03:53:45.961Z,15.00
2018-12-29T03:56:16.879Z,14.20
2018-12-29T03:58:47.831Z,14.37
2018-12-29T04:01:18.812Z,13.37
2018-12-29T04:03:49.776Z,17.70
2018-12-29T04:06:20.684Z,16.93
2018-12-29T04:09:27.662Z,20.17
2018-12-29T04:11:58.599Z,20.23
2018-12-29T04:14:29.507Z,16.23
2018-12-29T04:17:00.425Z,14.37
2018-12-29T04:19:31.322Z,18.33
2018-12-29T04:22:02.303Z,19.13
2018-12-29T04:24:33.227Z,20.03
2018-12-29T04:27:04.138Z,19.53
2018-12-29T04:29:35.061Z,16.70
2018-12-29T04:32:05.985Z,19.20
2018-12-29T04:34:36.984Z,18.83
2018-12-29T04:37:07.924Z,20.17
2018-12-29T04:39:38.901Z,19.10
2018-12-29T04:42:09.840Z,18.97
2018-12-29T04:44:40.748Z,25.07
2018-12-29T04:47:11.678Z,18.70
2018-12-29T04:49:42.616Z,18.30
2018-12-29T04:52:13.572Z,21.40
2018-12-29T04:54:44.477Z,22.27
2018-12-29T04:57:15.392Z,23.67
2018-12-29T04:59:46.307Z,22.60
2018-12-29T05:02:17.259Z,21.57
2018-12-29T05:04:48.137Z,25.33
2018-12-29T05:07:19.046Z,18.97
2018-12-29T05:09:49.948Z,20.30
2018-12-29T05:12:20.859Z,22.30
2018-12-29T05:14:51.790Z,20.80
2018-12-29T05:17:22.709Z,21.83
2018-12-29T05:19:53.627Z,29.47
2018-12-29T05:22:24.557Z,24.90
2018-12-29T05:24:55.461Z,25.87
2018-12-29T05:27:26.380Z,26.43
2018-12-29T05:29:57.345Z,23.63
2018-12-29T05:32:28.325Z,26.43
2018-12-29T05:34:59.241Z,27.63
2018-12-29T05:37:30.190Z,26.80
2018-12-29T05:40:01.090Z,25.53
2018-12-29T05:42:32.000Z,26.80
2018-12-29T05:45:03.716Z,27.90
2018-12-29T05:47:34.716Z,33.20
2018-12-29T05:50:06.018Z,27.87
2018-12-29T05:52:37.978Z,33.53
2018-12-29T05:55:08.911Z,31.53
2018-12-29T05:57:39.832Z,28.33
2018-12-29T06:00:10.819Z,34.83
2018-12-29T06:02:41.790Z,32.07
2018-12-29T06:05:12.708Z,36.47
2018-12-29T06:07:43.640Z,37.17
2018-12-29T06:10:14.550Z,35.77
2018-12-29T06:12:45.451Z,39.00
2018-12-29T06:15:16.356Z,40.57
2018-12-29T06:17:47.273Z,41.17
2018-12-29T06:20:18.187Z,46.07
2018-12-29T06:22:49.110Z,43.03
2018-12-29T06:25:20.077Z,45.00
2018-12-29T06:27:50.980Z,44.90
2018-12-29T06:30:21.917Z,43.27
2018-12-29T06:32:52.820Z,50.47
2018-12-29T06:35:23.736Z,46.73
2018-12-29T06:37:54.674Z,57.20
2018-12-29T06:40:25.616Z,43.70
2018-12-29T06:42:56.543Z,46.97
2018-12-29T06:45:27.489Z,47.53
2018-12-29T06:47:58.473Z,43.77
2018-12-29T06:50:29.392Z,45.80
2018-12-29T06:53:00.305Z,41.40
2018-12-29T06:55:31.742Z,41.13
2018-12-29T06:58:02.753Z,39.83
2018-12-29T07:00:36.606Z,40.80
2018-12-29T07:03:08.520Z,44.73
2018-12-29T07:05:39.429Z,42.60
2018-12-29T07:08:10.358Z,44.33
2018-12-29T07:10:41.292Z,41.30
2018-12-29T07:13:12.248Z,43.27
2018-12-29T07:15:43.240Z,40.00
2018-12-29T07:18:14.174Z,39.23
2018-12-29T07:20:45.092Z,47.83
2018-12-29T07:23:16.074Z,44.87
2018-12-29T07:25:47.016Z,46.83
2018-12-29T07:28:17.936Z,44.90
2018-12-29T07:30:48.933Z,46.27
2018-12-29T07:33:19.874Z,46.87
2018-12-29T07:35:52.361Z,46.10
2018-12-29T07:38:23.322Z,42.87
2018-12-29T07:40:54.264Z,47.03
2018-12-29T07:43:25.204Z,46.43
2018-12-29T07:45:56.159Z,46.60
2018-12-29T07:48:27.090Z,53.17
2018-12-29T07:50:58.071Z,48.30
2018-12-29T07:53:28.992Z,43.43
2018-12-29T07:55:59.924Z,40.47
2018-12-29T07:58:30.937Z,44.07
2018-12-29T08:01:01.936Z,40.53
2018-12-29T08:03:32.849Z,40.33
2018-12-29T08:06:03.829Z,46.77
2018-12-29T08:08:34.831Z,47.43
2018-12-29T08:11:05.762Z,45.60
2018-12-29T08:13:36.762Z,45.30
2018-12-29T08:16:07.824Z,42.33
2018-12-29T08:18:38.833Z,45.50
2018-12-29T08:21:09.975Z,46.43
2018-12-29T08:23:40.958Z,44.23
2018-12-29T08:26:14.353Z,49.27
2018-12-29T08:28:45.316Z,47.33
2018-12-29T08:31:16.241Z,49.57
2018-12-29T08:33:47.240Z,50.67
2018-12-29T08:36:18.149Z,52.00
2018-12-29T08:38:49.133Z,52.90
2018-12-29T08:41:20.065Z,59.87
2018-12-29T08:43:51.031Z,56.93
2018-12-29T08:46:21.976Z,57.80
2018-12-29T08:48:52.896Z,62.17
2018-12-29T08:51:23.808Z,62.93
2018-12-29T08:53:54.842Z,57.83
2018-12-29T08:56:25.836Z,54.87
2018-12-29T08:58:56.754Z,60.03
2018-12-29T09:01:27.804Z,54.27
2018-12-29T09:03:58.838Z,60.73
2018-12-29T09:06:29.768Z,55.00
2018-12-29T09:09:00.705Z,54.63
2018-12-29T09:11:33.252Z,54.83
2018-12-29T09:14:04.248Z,65.23
2018-12-29T09:16:35.246Z,52.10
2018-12-29T09:19:06.312Z,55.43
2018-12-29T09:21:37.980Z,54.47
2018-12-29T09:24:08.930Z,61.37
2018-12-29T09:26:39.922Z,61.77
2018-12-29T09:29:10.857Z,59.33
2018-12-29T09:31:41.849Z,61.30
2018-12-29T09:34:12.825Z,62.97
2018-12-29T09:36:44.610Z,51.63
2018-12-29T09:39:15.727Z,60.83
2018-12-29T09:41:46.731Z,63.30
2018-12-29T09:44:17.734Z,66.33
2018-12-29T09:46:48.762Z,66.70
2018-12-29T09:49:19.770Z,70.30
2018-12-29T09:51:50.796Z,77.70
2018-12-29T09:54:21.803Z,85.13
2018-12-29T09:56:52.846Z,93.97
2018-12-29T09:59:23.777Z,106.77
2018-12-29T10:01:54.859Z,104.03
2018-12-29T10:04:25.801Z,115.30
2018-12-29T10:06:57.854Z,112.50
2018-12-29T10:09:28.962Z,113.80
2018-12-29T10:11:59.956Z,99.37
2018-12-29T10:14:30.874Z,84.17
2018-12-29T10:17:01.956Z,90.90
2018-12-29T10:19:33.051Z,98.13
2018-12-29T10:22:04.091Z,103.30
2018-12-29T10:24:35.361Z,98.87
2018-12-29T10:27:06.459Z,99.07
2018-12-29T10:29:37.493Z,87.17
2018-12-29T10:32:11.421Z,92.50
2018-12-29T10:34:44.058Z,98.37
2018-12-29T10:37:17.081Z,71.03
2018-12-29T10:39:48.181Z,78.80
2018-12-29T10:42:19.081Z,67.20
2018-12-29T10:44:50.319Z,63.40
2018-12-29T10:47:21.300Z,56.77
2018-12-29T10:49:53.330Z,62.10
2018-12-29T10:52:24.268Z,64.77
2018-12-29T10:54:55.220Z,62.90
2018-12-29T10:57:26.150Z,67.33
2018-12-29T10:59:57.168Z,66.13
2018-12-29T11:02:28.326Z,59.93
2018-12-29T11:04:59.702Z,64.60
2018-12-29T11:07:30.760Z,53.93
2018-12-29T11:10:01.839Z,56.03
2018-12-29T11:12:33.922Z,60.07
2018-12-29T11:15:06.092Z,58.07
2018-12-29T11:17:42.188Z,70.80
2018-12-29T11:20:09.856Z,66.83
2018-12-29T11:22:40.987Z,49.33
2018-12-29T11:25:12.041Z,52.83
2018-12-29T11:27:43.044Z,50.77
2018-12-29T11:30:14.232Z,51.20
2018-12-29T11:32:45.232Z,48.40
2018-12-29T11:35:17.256Z,54.17
2018-12-29T11:37:49.113Z,54.30
2018-12-29T11:40:20.067Z,53.57
2018-12-29T11:42:51.305Z,57.27
2018-12-29T11:45:22.263Z,50.30
2018-12-29T11:47:53.390Z,53.07
2018-12-29T11:50:24.378Z,52.57
2018-12-29T11:52:55.389Z,59.90
2018-12-29T11:55:26.380Z,57.40
2018-12-29T11:57:57.313Z,64.30
2018-12-29T12:00:28.418Z,63.37
2018-12-29T12:02:59.476Z,72.90
2018-12-29T12:05:30.538Z,68.27
2018-12-29T12:08:01.528Z,66.27
2018-12-29T12:10:32.578Z,72.93
2018-12-29T12:13:03.563Z,69.40
2018-12-29T12:15:34.541Z,71.43
2018-12-29T12:18:05.596Z,80.30
2018-12-29T12:20:36.574Z,68.70
2018-12-29T12:23:07.520Z,69.33
2018-12-29T12:25:38.561Z,67.77
2018-12-29T12:28:09.799Z,77.83
2018-12-29T12:30:40.742Z,78.97
2018-12-29T12:33:11.957Z,81.33
2018-12-29T12:35:42.883Z,76.90
2018-12-29T12:38:14.005Z,75.03
2018-12-29T12:40:44.944Z,76.67
2018-12-29T12:43:16.190Z,68.63
2018-12-29T12:45:47.796Z,65.43
2018-12-29T12:48:18.953Z,76.13
2018-12-29T12:50:50.265Z,73.70
2018-12-29T12:53:21.204Z,71.30
2018-12-29T12:55:52.318Z,66.93
2018-12-29T12:58:24.474Z,77.30
2018-12-29T13:00:55.543Z,73.83
2018-12-29T13:03:27.545Z,66.63
2018-12-29T13:05:58.495Z,67.70
2018-12-29T13:08:29.459Z,75.80
2018-12-29T13:11:00.445Z,80.80
2018-12-29T13:13:31.458Z,77.77
2018-12-29T13:16:02.450Z,74.90
2018-12-29T13:18:33.379Z,78.50
2018-12-29T13:21:04.313Z,73.73
2018-12-29T13:23:35.250Z,85.90
2018-12-29T13:26:06.659Z,77.40
2018-12-29T13:28:37.671Z,83.70
2018-12-29T13:31:08.594Z,85.53
2018-12-29T13:33:39.642Z,83.07
2018-12-29T13:36:10.572Z,80.77
2018-12-29T13:38:41.610Z,75.57
2018-12-29T13:41:12.572Z,79.80
2018-12-29T13:43:43.582Z,108.43
2018-12-29T13:46:14.522Z,77.97
2018-12-29T13:48:45.630Z,72.57
2018-12-29T13:51:16.497Z,71.27
2018-12-29T13:53:47.493Z,68.73
2018-12-29T13:56:18.465Z,62.50
2018-12-29T13:58:49.405Z,76.33
2018-12-29T14:01:21.101Z,55.00
2018-12-29T14:03:52.567Z,67.13
2018-12-29T14:06:23.854Z,64.53
2018-12-29T14:08:55.749Z,60.23
2018-12-29T14:11:28.479Z,65.53
2018-12-29T14:14:00.872Z,63.83
2018-12-29T14:16:32.193Z,59.87
2018-12-29T14:19:04.310Z,63.07
2018-12-29T14:21:36.218Z,56.67
2018-12-29T14:24:07.212Z,63.07
2018-12-29T14:26:38.164Z,60.50
2018-12-29T14:29:12.011Z,52.77
2018-12-29T14:31:43.854Z,58.27
2018-12-29T14:34:14.919Z,54.63
2018-12-29T14:36:47.862Z,50.80
2018-12-29T14:39:21.966Z,59.97
2018-12-29T14:41:53.399Z,53.97
2018-12-29T14:44:29.825Z,55.87
2018-12-29T14:47:11.169Z,59.57
2018-12-29T14:50:31.259Z,63.87
2018-12-29T14:53:14.209Z,63.50
2018-12-29T14:55:46.276Z,66.10
2018-12-29T14:58:17.728Z,67.63
2018-12-29T15:00:48.813Z,66.27
2018-12-29T15:03:19.793Z,68.83
2018-12-29T15:05:50.802Z,76.23
2018-12-29T15:08:21.814Z,68.93
2018-12-29T15:10:53.921Z,76.57
2018-12-29T15:13:25.291Z,76.73
2018-12-29T15:15:56.215Z,69.13
2018-12-29T15:18:28.536Z,71.70
2018-12-29T15:20:59.845Z,74.83
2018-12-29T15:23:30.819Z,75.13
2018-12-29T15:26:02.300Z,69.17
2018-12-29T15:28:33.238Z,70.27
2018-12-29T15:31:04.200Z,73.20
2018-12-29T15:33:35.514Z,77.07
2018-12-29T15:36:06.489Z,82.00
2018-12-29T15:38:37.485Z,74.70
2018-12-29T15:41:08.723Z,70.93
2018-12-29T15:43:39.684Z,83.87
2018-12-29T15:46:10.956Z,66.83
2018-12-29T15:48:41.877Z,66.50
2018-12-29T15:51:12.843Z,69.77
2018-12-29T15:53:44.244Z,69.57
2018-12-29T15:56:16.506Z,69.27
2018-12-29T15:58:48.269Z,64.20
2018-12-29T16:01:20.315Z,65.77
2018-12-29T16:03:52.727Z,60.83
2018-12-29T16:06:24.729Z,54.97
2018-12-29T16:08:55.776Z,53.97
2018-12-29T16:11:27.197Z,54.83
2018-12-29T16:13:58.416Z,47.40
2018-12-29T16:16:29.381Z,53.23
2018-12-29T16:19:00.481Z,53.83
2018-12-29T16:21:31.978Z,52.07
2018-12-29T16:24:03.142Z,59.27
2018-12-29T16:26:34.088Z,60.13
2018-12-29T16:29:05.072Z,55.40
2018-12-29T16:31:36.218Z,64.70
2018-12-29T16:34:07.577Z,77.60
2018-12-29T16:36:38.935Z,66.53
2018-12-29T16:39:09.975Z,65.33
2018-12-29T16:41:41.251Z,63.67
2018-12-29T16:44:12.325Z,70.97
2018-12-29T16:46:43.347Z,81.93
2018-12-29T16:49:15.056Z,75.63
2018-12-29T16:51:46.152Z,73.17
2018-12-29T16:54:17.181Z,77.33
2018-12-29T16:56:48.222Z,84.10
2018-12-29T16:59:19.219Z,92.80
2018-12-29T17:01:50.220Z,90.70
2018-12-29T17:04:21.216Z,85.03
2018-12-29T17:06:52.372Z,83.37
2018-12-29T17:09:23.714Z,94.73
2018-12-29T17:11:54.917Z,95.30
2018-12-29T17:14:25.942Z,104.50
2018-12-29T17:16:56.941Z,113.23
2018-12-29T17:19:27.870Z,103.30
2018-12-29T17:21:58.921Z,107.37
2018-12-29T17:24:31.198Z,121.13
2018-12-29T17:27:02.513Z,105.83
2018-12-29T17:29:33.477Z,107.47
2018-12-29T17:32:04.464Z,112.87
2018-12-29T17:34:35.524Z,112.43
2018-12-29T17:37:06.564Z,110.77
2018-12-29T17:39:41.219Z,114.67
2018-12-29T17:42:12.169Z,110.87
2018-12-29T17:44:44.293Z,123.67
2018-12-29T17:47:15.217Z,103.47
2018-12-29T17:49:46.170Z,107.97
2018-12-29T17:52:17.106Z,112.77
2018-12-29T17:54:48.122Z,109.60
2018-12-29T17:57:19.131Z,116.80
2018-12-29T17:59:51.140Z,109.40
2018-12-29T18:02:22.076Z,107.53
2018-12-29T18:04:53.025Z,113.37
2018-12-29T18:07:24.336Z,98.50
2018-12-29T18:09:57.333Z,111.80
2018-12-29T18:12:27.923Z,115.50
2018-12-29T18:14:58.864Z,115.73
2018-12-29T18:17:29.803Z,112.83
2018-12-29T18:20:00.766Z,125.00
2018-12-29T18:22:31.814Z,122.73
2018-12-29T18:25:03.035Z,134.13
2018-12-29T18:27:34.180Z,127.97
2018-12-29T18:30:05.388Z,135.00
2018-12-29T18:32:36.326Z,120.83
2018-12-29T18:35:07.288Z,115.60
2018-12-29T18:37:38.209Z,109.73
2018-12-29T18:40:09.872Z,107.27
2018-12-29T18:42:40.821Z,103.07
2018-12-29T18:45:11.788Z,100.57
2018-12-29T18:47:42.787Z,96.63
2018-12-29T18:50:14.127Z,97.70
2018-12-29T18:52:47.350Z,103.00
2018-12-29T18:55:19.366Z,99.90
2018-12-29T18:57:50.685Z,102.97
2018-12-29T19:00:21.622Z,100.17
2018-12-29T19:02:52.629Z,108.93
2018-12-29T19:05:23.744Z,116.73
2018-12-29T19:07:54.794Z,105.63
2018-12-29T19:10:25.726Z,101.43
2018-12-29T19:12:56.769Z,96.30
2018-12-29T19:15:27.995Z,107.40
2018-12-29T19:17:59.301Z,104.80
2018-12-29T19:20:30.607Z,111.63
2018-12-29T19:23:01.552Z,103.80
2018-12-29T19:25:32.518Z,110.30
2018-12-29T19:28:03.630Z,110.40
2018-12-29T19:30:34.947Z,112.73
2018-12-29T19:33:06.430Z,108.80
2018-12-29T19:35:37.397Z,103.20
2018-12-29T19:38:08.354Z,107.87
2018-12-29T19:40:39.733Z,109.30
2018-12-29T19:43:10.693Z,100.57
2018-12-29T19:45:41.610Z,99.50
2018-12-29T19:48:12.700Z,116.13
2018-12-29T19:50:43.638Z,97.97
2018-12-29T19:53:14.926Z,119.50
2018-12-29T19:55:45.885Z,105.97
2018-12-29T19:58:16.821Z,106.43
2018-12-29T20:00:47.797Z,112.47
2018-12-29T20:03:19.173Z,112.47
2018-12-29T20:05:50.479Z,123.60
2018-12-29T20:08:21.487Z,110.87
2018-12-29T20:10:53.328Z,118.87
2018-12-29T20:13:24.245Z,115.13
2018-12-29T20:15:55.296Z,118.27
2018-12-29T20:18:26.220Z,110.97
2018-12-29T20:20:57.186Z,108.80
2018-12-29T20:23:28.108Z,117.63
2018-12-29T20:26:00.144Z,105.27
2018-12-29T20:28:31.071Z,114.03
2018-12-29T20:31:02.072Z,104.50
2018-12-29T20:33:33.097Z,105.97
2018-12-29T20:36:04.048Z,102.10
2018-12-29T20:38:36.073Z,98.93
2018-12-29T20:41:07.034Z,101.37
2018-12-29T20:43:38.638Z,104.63
2018-12-29T20:46:09.605Z,97.60
2018-12-29T20:48:40.550Z,94.83
2018-12-29T20:51:12.207Z,94.60
2018-12-29T20:53:43.326Z,87.30
2018-12-29T20:56:14.311Z,87.83
2018-12-29T20:58:45.270Z,91.33
2018-12-29T21:01:16.239Z,84.13
2018-12-29T21:03:47.179Z,82.97
2018-12-29T21:06:18.476Z,84.87
2018-12-29T21:08:49.735Z,74.37
2018-12-29T21:11:20.720Z,74.13
2018-12-29T21:13:51.645Z,76.43
2018-12-29T21:16:22.576Z,75.83
2018-12-29T21:18:54.071Z,73.00
2018-12-29T21:21:25.227Z,72.97
2018-12-29T21:23:56.148Z,63.63
2018-12-29T21:26:27.833Z,69.73
2018-12-29T21:29:01.223Z,70.07
2018-12-29T21:31:32.255Z,72.20
2018-12-29T21:34:03.222Z,69.80
2018-12-29T21:36:36.207Z,70.90
2018-12-29T21:42:33.745Z,68.63
2018-12-29T21:45:05.059Z,66.63
2018-12-29T21:47:36.140Z,66.07
2018-12-29T21:50:07.768Z,68.20
2018-12-29T21:53:00.598Z,72.73
2018-12-29T21:55:32.256Z,70.30
2018-12-29T21:58:03.856Z,68.97
2018-12-29T22:00:34.851Z,71.13
2018-12-29T22:03:06.178Z,69.50
2018-12-29T22:05:37.242Z,75.20
2018-12-29T22:08:08.596Z,73.60
2018-12-29T22:10:42.249Z,67.53
2018-12-29T22:13:18.324Z,70.00
2018-12-29T22:15:50.087Z,68.87
2018-12-29T22:18:21.904Z,70.90
2018-12-29T22:20:54.565Z,62.03
2018-12-29T22:23:25.527Z,61.30
2018-12-29T22:26:00.571Z,63.90
2018-12-29T22:28:34.639Z,62.63
2018-12-29T22:31:05.698Z,59.40
2018-12-29T22:33:36.661Z,60.27
2018-12-29T22:36:14.610Z,56.13
2018-12-29T22:38:48.744Z,54.90
2018-12-29T22:41:19.726Z,58.67
2018-12-29T22:43:54.559Z,54.37
2018-12-29T22:46:25.643Z,56.50
2018-12-29T22:48:57.918Z,56.27
2018-12-29T22:51:31.317Z,51.93
2018-12-29T22:54:02.377Z,54.03
2018-12-29T22:56:34.075Z,55.80
2018-12-29T22:59:06.132Z,53.00
2018-12-29T23:01:41.453Z,57.20
2018-12-29T23:04:18.332Z,55.20
2018-12-29T23:06:49.809Z,51.50
2018-12-29T23:09:40.763Z,57.00
2018-12-29T23:12:11.879Z,56.13
2018-12-29T23:14:44.703Z,51.43
2018-12-29T23:17:16.471Z,55.13
2018-12-29T23:19:47.570Z,53.37
2018-12-29T23:22:18.613Z,46.10
2018-12-29T23:24:49.529Z,48.63
2018-12-29T23:27:20.530Z,46.33
2018-12-29T23:29:51.615Z,48.40
2018-12-29T23:32:22.669Z,44.47
2018-12-29T23:34:53.593Z,47.03
2018-12-29T23:37:24.629Z,44.30
2018-12-29T23:39:56.584Z,45.03
2018-12-29T23:42:27.547Z,43.77
2018-12-29T23:45:02.013Z,43.50
2018-12-29T23:47:40.511Z,42.87
2018-12-29T23:50:11.983Z,41.53
2018-12-29T23:52:47.813Z,41.10
2018-12-29T23:55:21.895Z,41.17
2018-12-29T23:57:53.914Z,41.70
